sensor_id;sensor_type;location;lat;lon;timestamp;pressure;altitude;pressure_sealevel;temperature;humidity
20077;BME280;12348;42.710;23.378;2023-01-27T00:00:25;94338.47;;;-0.42;100.00
20077;BME280;12348;42.710;23.378;2023-01-27T00:02:52;94339.75;;;-0.45;100.00
20077;BME280;12348;42.710;23.378;2023-01-27T00:05:20;94341.44;;;-0.39;100.00
20077;BME280;12348;42.710;23.378;2023-01-27T00:07:48;94335.63;;;-0.41;100.00
20077;BME280;12348;42.710;23.378;2023-01-27T00:10:17;94334.56;;;-0.40;100.00
20077;BME280;12348;42.710;23.378;2023-01-27T00:12:45;94328.94;;;-0.43;100.00
20077;BME280;12348;42.710;23.378;2023-01-27T00:15:30;94325.03;;;-0.41;100.00
20077;BME280;12348;42.710;23.378;2023-01-27T00:17:57;94323.41;;;-0.42;100.00
20077;BME280;12348;42.710;23.378;2023-01-27T00:20:26;94328.69;;;-0.42;100.00
20077;BME280;12348;42.710;23.378;2023-01-27T00:23:14;94323.97;;;-0.40;100.00
20077;BME280;12348;42.710;23.378;2023-01-27T00:25:59;94319.09;;;-0.31;100.00
20077;BME280;12348;42.710;23.378;2023-01-27T00:28:30;94304.00;;;-0.31;100.00
20077;BME280;12348;42.710;23.378;2023-01-27T00:30:58;94293.53;;;-0.26;100.00
20077;BME280;12348;42.710;23.378;2023-01-27T00:33:25;94290.88;;;-0.26;100.00
20077;BME280;12348;42.710;23.378;2023-01-27T00:35:59;94297.81;;;-0.19;100.00
20077;BME280;12348;42.710;23.378;2023-01-27T00:38:30;94296.97;;;-0.25;100.00
20077;BME280;12348;42.710;23.378;2023-01-27T00:40:57;94308.97;;;-0.17;100.00
20077;BME280;12348;42.710;23.378;2023-01-27T00:43:45;94312.03;;;-0.26;100.00
20077;BME280;12348;42.710;23.378;2023-01-27T00:46:12;94297.59;;;-0.18;100.00
20077;BME280;12348;42.710;23.378;2023-01-27T00:48:39;94305.84;;;-0.14;100.00
20077;BME280;12348;42.710;23.378;2023-01-27T00:51:09;94306.06;;;-0.16;100.00
20077;BME280;12348;42.710;23.378;2023-01-27T00:53:36;94314.50;;;-0.19;100.00
20077;BME280;12348;42.710;23.378;2023-01-27T00:56:04;94314.69;;;-0.26;100.00
20077;BME280;12348;42.710;23.378;2023-01-27T00:58:31;94316.03;;;-0.23;100.00
20077;BME280;12348;42.710;23.378;2023-01-27T01:01:00;94315.47;;;-0.25;100.00
20077;BME280;12348;42.710;23.378;2023-01-27T01:03:29;94319.97;;;-0.26;100.00
20077;BME280;12348;42.710;23.378;2023-01-27T01:05:56;94313.91;;;-0.04;100.00
20077;BME280;12348;42.710;23.378;2023-01-27T01:08:25;94308.75;;;0.23;100.00
20077;BME280;12348;42.710;23.378;2023-01-27T01:10:54;94302.94;;;0.04;100.00
20077;BME280;12348;42.710;23.378;2023-01-27T01:13:21;94298.94;;;-0.15;100.00
20077;BME280;12348;42.710;23.378;2023-01-27T01:15:48;94307.53;;;-0.25;100.00
20077;BME280;12348;42.710;23.378;2023-01-27T01:18:15;94304.81;;;-0.30;100.00
20077;BME280;12348;42.710;23.378;2023-01-27T01:20:43;94293.38;;;-0.36;100.00
20077;BME280;12348;42.710;23.378;2023-01-27T01:23:11;94304.03;;;-0.47;100.00
20077;BME280;12348;42.710;23.378;2023-01-27T01:25:40;94309.81;;;-0.51;100.00
20077;BME280;12348;42.710;23.378;2023-01-27T01:28:08;94310.75;;;-0.57;100.00
20077;BME280;12348;42.710;23.378;2023-01-27T01:30:35;94306.19;;;-0.61;100.00
20077;BME280;12348;42.710;23.378;2023-01-27T01:33:02;94295.78;;;-0.51;100.00
20077;BME280;12348;42.710;23.378;2023-01-27T01:35:29;94303.31;;;-0.43;100.00
20077;BME280;12348;42.710;23.378;2023-01-27T01:37:56;94305.94;;;-0.43;100.00
20077;BME280;12348;42.710;23.378;2023-01-27T01:40:23;94313.88;;;-0.43;100.00
20077;BME280;12348;42.710;23.378;2023-01-27T01:42:58;94314.47;;;-0.41;100.00
20077;BME280;12348;42.710;23.378;2023-01-27T01:45:49;94326.78;;;-0.46;100.00
20077;BME280;12348;42.710;23.378;2023-01-27T01:48:21;94337.28;;;-0.52;100.00
20077;BME280;12348;42.710;23.378;2023-01-27T01:50:52;94327.97;;;-0.54;100.00
20077;BME280;12348;42.710;23.378;2023-01-27T01:53:21;94315.56;;;-0.54;100.00
20077;BME280;12348;42.710;23.378;2023-01-27T01:55:56;94309.22;;;-0.53;100.00
20077;BME280;12348;42.710;23.378;2023-01-27T01:58:26;94301.53;;;-0.54;100.00
20077;BME280;12348;42.710;23.378;2023-01-27T02:00:53;94296.91;;;-0.47;100.00
20077;BME280;12348;42.710;23.378;2023-01-27T02:03:22;94295.38;;;-0.43;100.00
20077;BME280;12348;42.710;23.378;2023-01-27T02:05:51;94289.78;;;-0.46;100.00
20077;BME280;12348;42.710;23.378;2023-01-27T02:08:23;94281.75;;;-0.35;100.00
20077;BME280;12348;42.710;23.378;2023-01-27T02:10:51;94270.25;;;-0.23;100.00
20077;BME280;12348;42.710;23.378;2023-01-27T02:13:19;94263.75;;;-0.16;100.00
20077;BME280;12348;42.710;23.378;2023-01-27T02:15:49;94257.19;;;-0.13;100.00
20077;BME280;12348;42.710;23.378;2023-01-27T02:18:17;94245.00;;;-0.14;100.00
20077;BME280;12348;42.710;23.378;2023-01-27T02:20:45;94249.25;;;-0.13;100.00
20077;BME280;12348;42.710;23.378;2023-01-27T02:23:25;94244.13;;;-0.20;100.00
20077;BME280;12348;42.710;23.378;2023-01-27T02:25:58;94244.28;;;-0.27;100.00
20077;BME280;12348;42.710;23.378;2023-01-27T02:28:29;94237.66;;;-0.29;100.00
20077;BME280;12348;42.710;23.378;2023-01-27T02:30:56;94229.66;;;-0.34;100.00
20077;BME280;12348;42.710;23.378;2023-01-27T02:33:23;94240.78;;;-0.32;100.00
20077;BME280;12348;42.710;23.378;2023-01-27T02:35:55;94235.25;;;-0.31;100.00
20077;BME280;12348;42.710;23.378;2023-01-27T02:38:26;94240.00;;;-0.33;100.00
20077;BME280;12348;42.710;23.378;2023-01-27T02:40:59;94242.06;;;-0.35;100.00
20077;BME280;12348;42.710;23.378;2023-01-27T02:43:26;94238.22;;;-0.27;100.00
20077;BME280;12348;42.710;23.378;2023-01-27T02:45:54;94235.56;;;-0.27;100.00
20077;BME280;12348;42.710;23.378;2023-01-27T02:48:20;94245.03;;;-0.31;100.00
20077;BME280;12348;42.710;23.378;2023-01-27T02:50:47;94247.44;;;-0.30;100.00
20077;BME280;12348;42.710;23.378;2023-01-27T02:53:14;94254.81;;;-0.32;100.00
20077;BME280;12348;42.710;23.378;2023-01-27T02:55:41;94261.63;;;-0.36;100.00
20077;BME280;12348;42.710;23.378;2023-01-27T02:58:10;94259.00;;;-0.36;100.00
20077;BME280;12348;42.710;23.378;2023-01-27T03:00:39;94259.78;;;-0.35;100.00
20077;BME280;12348;42.710;23.378;2023-01-27T03:03:07;94250.25;;;-0.36;100.00
20077;BME280;12348;42.710;23.378;2023-01-27T03:05:34;94254.97;;;-0.38;100.00
20077;BME280;12348;42.710;23.378;2023-01-27T03:08:00;94247.53;;;-0.41;100.00
20077;BME280;12348;42.710;23.378;2023-01-27T03:10:27;94247.47;;;-0.46;100.00
20077;BME280;12348;42.710;23.378;2023-01-27T03:12:54;94239.44;;;-0.35;100.00
20077;BME280;12348;42.710;23.378;2023-01-27T03:15:22;94237.97;;;-0.26;100.00
20077;BME280;12348;42.710;23.378;2023-01-27T03:18:08;94233.81;;;-0.21;100.00
20077;BME280;12348;42.710;23.378;2023-01-27T03:20:35;94233.00;;;-0.22;100.00
20077;BME280;12348;42.710;23.378;2023-01-27T03:23:02;94223.28;;;-0.16;100.00
20077;BME280;12348;42.710;23.378;2023-01-27T03:25:29;94221.69;;;-0.17;100.00
20077;BME280;12348;42.710;23.378;2023-01-27T03:27:56;94218.72;;;-0.21;100.00
20077;BME280;12348;42.710;23.378;2023-01-27T03:30:25;94219.47;;;-0.26;100.00
20077;BME280;12348;42.710;23.378;2023-01-27T03:32:52;94203.59;;;-0.26;100.00
20077;BME280;12348;42.710;23.378;2023-01-27T03:35:19;94204.31;;;-0.30;100.00
20077;BME280;12348;42.710;23.378;2023-01-27T03:37:49;94187.97;;;-0.27;100.00
20077;BME280;12348;42.710;23.378;2023-01-27T03:40:33;94184.56;;;-0.22;100.00
20077;BME280;12348;42.710;23.378;2023-01-27T03:43:18;94181.72;;;-0.38;100.00
20077;BME280;12348;42.710;23.378;2023-01-27T03:46:05;94171.97;;;-0.37;100.00
20077;BME280;12348;42.710;23.378;2023-01-27T03:48:43;94173.81;;;-0.38;100.00
20077;BME280;12348;42.710;23.378;2023-01-27T03:51:10;94165.88;;;-0.38;100.00
20077;BME280;12348;42.710;23.378;2023-01-27T03:53:37;94177.91;;;-0.47;100.00
20077;BME280;12348;42.710;23.378;2023-01-27T03:56:04;94177.34;;;-0.49;100.00
20077;BME280;12348;42.710;23.378;2023-01-27T03:58:33;94179.03;;;-0.43;100.00
20077;BME280;12348;42.710;23.378;2023-01-27T04:01:01;94177.44;;;-0.44;100.00
20077;BME280;12348;42.710;23.378;2023-01-27T04:03:31;94165.81;;;-0.43;100.00
20077;BME280;12348;42.710;23.378;2023-01-27T04:06:18;94193.53;;;-0.45;100.00
20077;BME280;12348;42.710;23.378;2023-01-27T04:09:03;94207.00;;;-0.47;100.00
20077;BME280;12348;42.710;23.378;2023-01-27T04:11:30;94231.50;;;-0.35;100.00
20077;BME280;12348;42.710;23.378;2023-01-27T04:14:14;94234.94;;;-0.34;100.00
20077;BME280;12348;42.710;23.378;2023-01-27T04:16:42;94244.22;;;-0.32;100.00
20077;BME280;12348;42.710;23.378;2023-01-27T04:19:12;94255.06;;;-0.33;100.00
20077;BME280;12348;42.710;23.378;2023-01-27T04:21:39;94254.19;;;-0.39;100.00
20077;BME280;12348;42.710;23.378;2023-01-27T04:24:06;94251.06;;;-0.36;100.00
20077;BME280;12348;42.710;23.378;2023-01-27T04:26:42;94250.00;;;-0.35;100.00
20077;BME280;12348;42.710;23.378;2023-01-27T04:29:10;94245.81;;;-0.31;100.00
20077;BME280;12348;42.710;23.378;2023-01-27T04:31:37;94250.63;;;-0.28;100.00
20077;BME280;12348;42.710;23.378;2023-01-27T04:34:04;94272.38;;;-0.26;100.00
20077;BME280;12348;42.710;23.378;2023-01-27T04:36:33;94287.19;;;-0.25;100.00
20077;BME280;12348;42.710;23.378;2023-01-27T04:39:00;94281.00;;;-0.13;100.00
20077;BME280;12348;42.710;23.378;2023-01-27T04:41:27;94274.34;;;-0.16;100.00
20077;BME280;12348;42.710;23.378;2023-01-27T04:43:54;94272.63;;;-0.05;100.00
20077;BME280;12348;42.710;23.378;2023-01-27T04:46:20;94277.69;;;-0.04;100.00
20077;BME280;12348;42.710;23.378;2023-01-27T04:48:47;94284.31;;;-0.01;100.00
20077;BME280;12348;42.710;23.378;2023-01-27T04:51:14;94267.72;;;0.04;100.00
20077;BME280;12348;42.710;23.378;2023-01-27T04:53:43;94271.09;;;-0.01;100.00
20077;BME280;12348;42.710;23.378;2023-01-27T04:56:32;94282.16;;;-0.04;100.00
20077;BME280;12348;42.710;23.378;2023-01-27T04:58:59;94282.47;;;-0.01;100.00
20077;BME280;12348;42.710;23.378;2023-01-27T05:01:27;94282.72;;;-0.02;100.00
20077;BME280;12348;42.710;23.378;2023-01-27T05:03:54;94280.94;;;0.04;100.00
20077;BME280;12348;42.710;23.378;2023-01-27T05:06:21;94283.09;;;0.07;100.00
20077;BME280;12348;42.710;23.378;2023-01-27T05:08:50;94268.28;;;0.06;100.00
20077;BME280;12348;42.710;23.378;2023-01-27T05:11:17;94270.91;;;0.06;100.00
20077;BME280;12348;42.710;23.378;2023-01-27T05:13:44;94271.09;;;-0.01;100.00
20077;BME280;12348;42.710;23.378;2023-01-27T05:16:12;94263.09;;;-0.06;100.00
20077;BME280;12348;42.710;23.378;2023-01-27T05:18:40;94258.34;;;-0.04;100.00
20077;BME280;12348;42.710;23.378;2023-01-27T05:21:11;94259.88;;;-0.08;100.00
20077;BME280;12348;42.710;23.378;2023-01-27T05:23:38;94270.47;;;-0.08;100.00
20077;BME280;12348;42.710;23.378;2023-01-27T05:26:09;94278.19;;;-0.07;100.00
20077;BME280;12348;42.710;23.378;2023-01-27T05:28:38;94264.38;;;-0.09;100.00
20077;BME280;12348;42.710;23.378;2023-01-27T05:31:07;94254.28;;;-0.12;100.00
20077;BME280;12348;42.710;23.378;2023-01-27T05:33:35;94254.06;;;-0.10;100.00
20077;BME280;12348;42.710;23.378;2023-01-27T05:36:03;94249.50;;;-0.15;100.00
20077;BME280;12348;42.710;23.378;2023-01-27T05:38:31;94247.97;;;-0.11;100.00
20077;BME280;12348;42.710;23.378;2023-01-27T05:40:59;94250.34;;;-0.09;100.00
20077;BME280;12348;42.710;23.378;2023-01-27T05:43:30;94235.84;;;-0.07;100.00
20077;BME280;12348;42.710;23.378;2023-01-27T05:46:01;94230.56;;;-0.07;100.00
20077;BME280;12348;42.710;23.378;2023-01-27T05:48:28;94218.34;;;-0.08;100.00
20077;BME280;12348;42.710;23.378;2023-01-27T05:50:56;94234.91;;;-0.17;100.00
20077;BME280;12348;42.710;23.378;2023-01-27T05:53:25;94238.03;;;-0.20;100.00
20077;BME280;12348;42.710;23.378;2023-01-27T05:55:52;94243.59;;;-0.22;100.00
20077;BME280;12348;42.710;23.378;2023-01-27T05:58:20;94240.38;;;-0.24;100.00
20077;BME280;12348;42.710;23.378;2023-01-27T06:00:51;94248.56;;;-0.26;100.00
20077;BME280;12348;42.710;23.378;2023-01-27T06:03:18;94253.06;;;-0.26;100.00
20077;BME280;12348;42.710;23.378;2023-01-27T06:05:53;94269.78;;;-0.20;100.00
20077;BME280;12348;42.710;23.378;2023-01-27T06:08:20;94255.59;;;-0.14;100.00
20077;BME280;12348;42.710;23.378;2023-01-27T06:10:47;94257.50;;;-0.10;100.00
20077;BME280;12348;42.710;23.378;2023-01-27T06:13:14;94259.66;;;-0.07;100.00
20077;BME280;12348;42.710;23.378;2023-01-27T06:15:43;94250.63;;;-0.11;100.00
20077;BME280;12348;42.710;23.378;2023-01-27T06:18:12;94238.72;;;-0.08;100.00
20077;BME280;12348;42.710;23.378;2023-01-27T06:20:39;94257.31;;;-0.03;100.00
20077;BME280;12348;42.710;23.378;2023-01-27T06:23:07;94265.50;;;-0.05;100.00
20077;BME280;12348;42.710;23.378;2023-01-27T06:25:35;94268.44;;;-0.01;100.00
20077;BME280;12348;42.710;23.378;2023-01-27T06:28:03;94264.69;;;-0.05;100.00
20077;BME280;12348;42.710;23.378;2023-01-27T06:30:32;94259.47;;;0.00;100.00
20077;BME280;12348;42.710;23.378;2023-01-27T06:32:59;94259.78;;;0.04;100.00
20077;BME280;12348;42.710;23.378;2023-01-27T06:35:28;94258.97;;;0.03;100.00
20077;BME280;12348;42.710;23.378;2023-01-27T06:37:56;94258.75;;;0.05;100.00
20077;BME280;12348;42.710;23.378;2023-01-27T06:40:23;94266.13;;;0.03;100.00
20077;BME280;12348;42.710;23.378;2023-01-27T06:42:50;94264.34;;;0.08;100.00
20077;BME280;12348;42.710;23.378;2023-01-27T06:45:16;94259.06;;;0.08;100.00
20077;BME280;12348;42.710;23.378;2023-01-27T06:47:43;94277.50;;;0.03;100.00
20077;BME280;12348;42.710;23.378;2023-01-27T06:50:10;94279.59;;;0.01;100.00
20077;BME280;12348;42.710;23.378;2023-01-27T06:52:38;94282.06;;;0.08;100.00
20077;BME280;12348;42.710;23.378;2023-01-27T06:55:07;94285.53;;;0.08;100.00
20077;BME280;12348;42.710;23.378;2023-01-27T06:57:34;94278.13;;;0.10;100.00
20077;BME280;12348;42.710;23.378;2023-01-27T07:00:01;94286.13;;;0.15;100.00
20077;BME280;12348;42.710;23.378;2023-01-27T07:02:28;94279.34;;;0.24;100.00
20077;BME280;12348;42.710;23.378;2023-01-27T07:04:55;94302.75;;;0.33;100.00
20077;BME280;12348;42.710;23.378;2023-01-27T07:07:22;94283.72;;;0.36;100.00
20077;BME280;12348;42.710;23.378;2023-01-27T07:09:50;94288.34;;;0.45;100.00
20077;BME280;12348;42.710;23.378;2023-01-27T07:12:18;94280.66;;;0.44;100.00
20077;BME280;12348;42.710;23.378;2023-01-27T07:14:45;94286.03;;;0.49;100.00
20077;BME280;12348;42.710;23.378;2023-01-27T07:17:12;94289.69;;;0.48;100.00
20077;BME280;12348;42.710;23.378;2023-01-27T07:19:39;94286.03;;;0.49;100.00
20077;BME280;12348;42.710;23.378;2023-01-27T07:22:05;94279.81;;;0.38;100.00
20077;BME280;12348;42.710;23.378;2023-01-27T07:24:33;94284.31;;;0.38;100.00
20077;BME280;12348;42.710;23.378;2023-01-27T07:27:01;94280.47;;;0.51;100.00
20077;BME280;12348;42.710;23.378;2023-01-27T07:29:28;94277.84;;;0.56;100.00
20077;BME280;12348;42.710;23.378;2023-01-27T07:31:54;94276.56;;;0.58;100.00
20077;BME280;12348;42.710;23.378;2023-01-27T07:34:21;94270.19;;;0.54;100.00
20077;BME280;12348;42.710;23.378;2023-01-27T07:36:48;94283.41;;;0.76;100.00
20077;BME280;12348;42.710;23.378;2023-01-27T07:39:15;94284.22;;;0.82;100.00
20077;BME280;12348;42.710;23.378;2023-01-27T07:41:41;94279.50;;;0.84;100.00
20077;BME280;12348;42.710;23.378;2023-01-27T07:44:10;94283.53;;;0.91;100.00
20077;BME280;12348;42.710;23.378;2023-01-27T07:46:37;94284.91;;;0.94;100.00
20077;BME280;12348;42.710;23.378;2023-01-27T07:49:04;94281.19;;;0.95;100.00
20077;BME280;12348;42.710;23.378;2023-01-27T07:51:31;94283.66;;;1.02;100.00
20077;BME280;12348;42.710;23.378;2023-01-27T07:53:57;94275.94;;;1.00;100.00
20077;BME280;12348;42.710;23.378;2023-01-27T07:56:24;94285.13;;;0.92;100.00
20077;BME280;12348;42.710;23.378;2023-01-27T07:58:52;94289.31;;;0.83;100.00
20077;BME280;12348;42.710;23.378;2023-01-27T08:01:21;94285.63;;;0.89;100.00
20077;BME280;12348;42.710;23.378;2023-01-27T08:03:47;94282.97;;;0.89;100.00
20077;BME280;12348;42.710;23.378;2023-01-27T08:06:14;94279.66;;;0.99;100.00
20077;BME280;12348;42.710;23.378;2023-01-27T08:08:41;94287.13;;;1.07;100.00
20077;BME280;12348;42.710;23.378;2023-01-27T08:11:11;94291.44;;;1.13;100.00
20077;BME280;12348;42.710;23.378;2023-01-27T08:13:38;94288.03;;;1.18;100.00
20077;BME280;12348;42.710;23.378;2023-01-27T08:16:06;94292.19;;;1.09;100.00
20077;BME280;12348;42.710;23.378;2023-01-27T08:18:35;94281.13;;;1.17;100.00
20077;BME280;12348;42.710;23.378;2023-01-27T08:21:04;94278.69;;;1.10;100.00
20077;BME280;12348;42.710;23.378;2023-01-27T08:23:32;94269.84;;;1.00;100.00
20077;BME280;12348;42.710;23.378;2023-01-27T08:26:02;94278.53;;;0.95;100.00
20077;BME280;12348;42.710;23.378;2023-01-27T08:28:31;94287.84;;;0.98;100.00
20077;BME280;12348;42.710;23.378;2023-01-27T08:31:03;94293.03;;;0.87;100.00
20077;BME280;12348;42.710;23.378;2023-01-27T08:33:30;94286.38;;;0.85;100.00
20077;BME280;12348;42.710;23.378;2023-01-27T08:36:03;94291.19;;;0.88;100.00
20077;BME280;12348;42.710;23.378;2023-01-27T08:38:30;94285.25;;;0.76;100.00
20077;BME280;12348;42.710;23.378;2023-01-27T08:41:02;94290.16;;;0.67;100.00
20077;BME280;12348;42.710;23.378;2023-01-27T08:43:28;94289.81;;;0.58;100.00
20077;BME280;12348;42.710;23.378;2023-01-27T08:45:55;94292.66;;;0.52;100.00
20077;BME280;12348;42.710;23.378;2023-01-27T08:48:24;94295.91;;;0.59;100.00
20077;BME280;12348;42.710;23.378;2023-01-27T08:50:52;94296.97;;;0.58;100.00
20077;BME280;12348;42.710;23.378;2023-01-27T08:53:23;94302.00;;;0.59;100.00
20077;BME280;12348;42.710;23.378;2023-01-27T08:55:50;94292.28;;;0.65;100.00
20077;BME280;12348;42.710;23.378;2023-01-27T08:58:18;94291.53;;;0.69;100.00
20077;BME280;12348;42.710;23.378;2023-01-27T09:00:45;94299.25;;;0.71;100.00
20077;BME280;12348;42.710;23.378;2023-01-27T09:03:11;94288.50;;;0.83;100.00
20077;BME280;12348;42.710;23.378;2023-01-27T09:05:40;94293.84;;;0.88;100.00
20077;BME280;12348;42.710;23.378;2023-01-27T09:08:06;94288.91;;;0.75;100.00
20077;BME280;12348;42.710;23.378;2023-01-27T09:10:37;94292.78;;;0.89;100.00
20077;BME280;12348;42.710;23.378;2023-01-27T09:13:04;94284.59;;;0.90;100.00
20077;BME280;12348;42.710;23.378;2023-01-27T09:15:31;94284.44;;;1.02;100.00
20077;BME280;12348;42.710;23.378;2023-01-27T09:17:58;94280.94;;;0.96;100.00
20077;BME280;12348;42.710;23.378;2023-01-27T09:20:24;94285.41;;;0.91;100.00
20077;BME280;12348;42.710;23.378;2023-01-27T09:22:53;94284.75;;;0.79;100.00
20077;BME280;12348;42.710;23.378;2023-01-27T09:25:20;94282.19;;;0.89;100.00
20077;BME280;12348;42.710;23.378;2023-01-27T09:27:52;94272.00;;;1.03;100.00
20077;BME280;12348;42.710;23.378;2023-01-27T09:30:20;94272.25;;;1.01;100.00
20077;BME280;12348;42.710;23.378;2023-01-27T09:32:46;94267.69;;;1.24;100.00
20077;BME280;12348;42.710;23.378;2023-01-27T09:35:14;94267.13;;;1.21;100.00
20077;BME280;12348;42.710;23.378;2023-01-27T09:37:44;94265.56;;;1.26;100.00
20077;BME280;12348;42.710;23.378;2023-01-27T09:40:20;94250.41;;;1.21;100.00
20077;BME280;12348;42.710;23.378;2023-01-27T09:43:29;94247.47;;;1.17;100.00
20077;BME280;12348;42.710;23.378;2023-01-27T09:46:22;94252.19;;;1.10;100.00
20077;BME280;12348;42.710;23.378;2023-01-27T09:49:05;94248.53;;;1.16;100.00
20077;BME280;12348;42.710;23.378;2023-01-27T09:51:43;94242.84;;;1.03;100.00
20077;BME280;12348;42.710;23.378;2023-01-27T09:54:38;94241.16;;;0.91;100.00
20077;BME280;12348;42.710;23.378;2023-01-27T09:57:16;94244.63;;;0.97;100.00
20077;BME280;12348;42.710;23.378;2023-01-27T09:59:58;94243.91;;;1.02;100.00
20077;BME280;12348;42.710;23.378;2023-01-27T10:02:41;94233.63;;;1.10;100.00
20077;BME280;12348;42.710;23.378;2023-01-27T10:05:29;94234.41;;;1.11;100.00
20077;BME280;12348;42.710;23.378;2023-01-27T10:08:20;94226.22;;;1.12;100.00
20077;BME280;12348;42.710;23.378;2023-01-27T10:11:05;94233.13;;;1.13;100.00
20077;BME280;12348;42.710;23.378;2023-01-27T10:13:44;94227.75;;;1.08;100.00
20077;BME280;12348;42.710;23.378;2023-01-27T10:16:29;94230.06;;;0.94;100.00
20077;BME280;12348;42.710;23.378;2023-01-27T10:19:24;94231.94;;;0.99;100.00
20077;BME280;12348;42.710;23.378;2023-01-27T10:22:03;94222.94;;;1.00;100.00
20077;BME280;12348;42.710;23.378;2023-01-27T10:24:44;94232.69;;;0.94;100.00
20077;BME280;12348;42.710;23.378;2023-01-27T10:27:15;94239.28;;;0.92;100.00
20077;BME280;12348;42.710;23.378;2023-01-27T10:29:45;94227.13;;;0.96;100.00
20077;BME280;12348;42.710;23.378;2023-01-27T10:32:20;94230.34;;;0.98;100.00
20077;BME280;12348;42.710;23.378;2023-01-27T10:34:53;94229.44;;;0.87;100.00
20077;BME280;12348;42.710;23.378;2023-01-27T10:37:27;94229.16;;;0.84;100.00
20077;BME280;12348;42.710;23.378;2023-01-27T10:40:03;94219.06;;;0.81;100.00
20077;BME280;12348;42.710;23.378;2023-01-27T10:42:38;94220.41;;;0.83;100.00
20077;BME280;12348;42.710;23.378;2023-01-27T10:45:19;94216.50;;;0.91;100.00
20077;BME280;12348;42.710;23.378;2023-01-27T10:48:28;94216.50;;;0.91;100.00
20077;BME280;12348;42.710;23.378;2023-01-27T10:51:03;94218.06;;;0.87;100.00
20077;BME280;12348;42.710;23.378;2023-01-27T10:53:38;94219.16;;;0.91;100.00
20077;BME280;12348;42.710;23.378;2023-01-27T10:56:10;94207.53;;;0.97;100.00
20077;BME280;12348;42.710;23.378;2023-01-27T10:58:45;94206.22;;;1.00;100.00
20077;BME280;12348;42.710;23.378;2023-01-27T11:01:16;94207.72;;;1.17;100.00
20077;BME280;12348;42.710;23.378;2023-01-27T11:03:51;94206.41;;;1.20;100.00
20077;BME280;12348;42.710;23.378;2023-01-27T11:06:21;94209.34;;;1.24;100.00
20077;BME280;12348;42.710;23.378;2023-01-27T11:08:52;94213.09;;;1.28;100.00
20077;BME280;12348;42.710;23.378;2023-01-27T11:11:23;94210.88;;;1.19;100.00
20077;BME280;12348;42.710;23.378;2023-01-27T11:14:13;94210.94;;;1.25;100.00
20077;BME280;12348;42.710;23.378;2023-01-27T11:16:44;94214.59;;;1.18;100.00
20077;BME280;12348;42.710;23.378;2023-01-27T11:19:21;94209.28;;;1.18;100.00
20077;BME280;12348;42.710;23.378;2023-01-27T11:21:50;94199.28;;;1.26;100.00
20077;BME280;12348;42.710;23.378;2023-01-27T11:24:25;94189.41;;;1.16;100.00
20077;BME280;12348;42.710;23.378;2023-01-27T11:26:59;94189.66;;;1.14;100.00
20077;BME280;12348;42.710;23.378;2023-01-27T11:29:35;94186.69;;;1.11;100.00
20077;BME280;12348;42.710;23.378;2023-01-27T11:32:14;94186.09;;;1.36;100.00
20077;BME280;12348;42.710;23.378;2023-01-27T11:34:48;94175.97;;;1.28;100.00
20077;BME280;12348;42.710;23.378;2023-01-27T11:37:23;94176.41;;;1.14;100.00
20077;BME280;12348;42.710;23.378;2023-01-27T11:39:51;94180.69;;;1.20;100.00
20077;BME280;12348;42.710;23.378;2023-01-27T11:42:18;94182.25;;;1.16;100.00
20077;BME280;12348;42.710;23.378;2023-01-27T11:44:45;94191.63;;;1.29;100.00
20077;BME280;12348;42.710;23.378;2023-01-27T11:47:22;94187.84;;;1.20;100.00
20077;BME280;12348;42.710;23.378;2023-01-27T11:49:52;94181.97;;;1.13;100.00
20077;BME280;12348;42.710;23.378;2023-01-27T11:52:21;94182.16;;;1.06;100.00
20077;BME280;12348;42.710;23.378;2023-01-27T11:54:53;94176.53;;;0.98;100.00
20077;BME280;12348;42.710;23.378;2023-01-27T11:57:24;94175.19;;;0.95;100.00
20077;BME280;12348;42.710;23.378;2023-01-27T11:59:56;94174.13;;;0.96;100.00
20077;BME280;12348;42.710;23.378;2023-01-27T12:02:30;94174.47;;;1.05;100.00
20077;BME280;12348;42.710;23.378;2023-01-27T12:05:07;94174.31;;;1.16;100.00
20077;BME280;12348;42.710;23.378;2023-01-27T12:07:50;94168.34;;;1.04;100.00
20077;BME280;12348;42.710;23.378;2023-01-27T12:10:26;94175.69;;;1.24;100.00
20077;BME280;12348;42.710;23.378;2023-01-27T12:12:53;94177.00;;;1.27;100.00
20077;BME280;12348;42.710;23.378;2023-01-27T12:15:20;94174.91;;;1.29;100.00
20077;BME280;12348;42.710;23.378;2023-01-27T12:17:53;94174.81;;;1.13;100.00
20077;BME280;12348;42.710;23.378;2023-01-27T12:20:30;94183.72;;;1.02;100.00
20077;BME280;12348;42.710;23.378;2023-01-27T12:23:02;94181.31;;;1.01;100.00
20077;BME280;12348;42.710;23.378;2023-01-27T12:25:39;94183.94;;;0.95;100.00
20077;BME280;12348;42.710;23.378;2023-01-27T12:28:18;94178.84;;;0.89;100.00
20077;BME280;12348;42.710;23.378;2023-01-27T12:30:47;94184.22;;;0.99;100.00
20077;BME280;12348;42.710;23.378;2023-01-27T12:33:21;94180.59;;;1.10;100.00
20077;BME280;12348;42.710;23.378;2023-01-27T12:35:51;94177.53;;;0.91;100.00
20077;BME280;12348;42.710;23.378;2023-01-27T12:38:20;94187.06;;;0.87;100.00
20077;BME280;12348;42.710;23.378;2023-01-27T12:40:55;94182.34;;;0.94;100.00
20077;BME280;12348;42.710;23.378;2023-01-27T12:43:23;94176.50;;;0.92;100.00
20077;BME280;12348;42.710;23.378;2023-01-27T12:46:04;94176.00;;;0.95;100.00
20077;BME280;12348;42.710;23.378;2023-01-27T12:48:32;94175.69;;;0.92;100.00
20077;BME280;12348;42.710;23.378;2023-01-27T12:51:13;94179.31;;;1.13;100.00
20077;BME280;12348;42.710;23.378;2023-01-27T12:53:40;94170.59;;;1.17;100.00
20077;BME280;12348;42.710;23.378;2023-01-27T12:56:11;94176.69;;;1.18;100.00
20077;BME280;12348;42.710;23.378;2023-01-27T12:58:42;94176.41;;;1.14;100.00
20077;BME280;12348;42.710;23.378;2023-01-27T13:01:25;94170.19;;;1.36;100.00
20077;BME280;12348;42.710;23.378;2023-01-27T13:03:56;94177.00;;;1.27;100.00